RAM356 GMMN-EBBR
Flight info
| Callsign | RAM356 |
|---|---|
| Flight time | N/A |
| Altitude | 34000 |
| Route | TOLSI UG5 KORIS DCT SVL DCT HIJ DCT RUSEM DCT SOTUK DCT USOKO DCT TLD DCT SIE DCT EDIGO DCT DGO L176 LUSEM DCT LULUT DCT ADABI DCT BOKNO DCT DEVRO DCT VANAD DCT PIWIZ DCT VADOM DCT BAMES DCT PODEM DCT BAZOS DCT BELDI DCT VEKIN Z173 ARVOL |
| Aircraft | B763/H-SDE3FGHIM3RWXY/LB1 |
Departure
| Time | 2026-05-07 17:44 |
|---|---|
| Airport | Mohammed V International Airport (GMMN) |
Arrival
| Time | N/A |
|---|---|
| Airport | Brussels Airport (EBBR) |
| Time | Latitude | Longitude | Altitude | Speed | Heading |
|---|---|---|---|---|---|
| 2026-05-07 16:43 | 33.35861 | -7.56703 | 665 ft | 0 kts | 22° |
| 2026-05-07 17:12 | 33.35862 | -7.56703 | 665 ft | 0 kts | 22° |
| 2026-05-07 17:12 | 33.35863 | -7.56702 | 665 ft | 0 kts | 22° |
| 2026-05-07 17:12 | 33.35872 | -7.56698 | 665 ft | 2 kts | 21° |
| 2026-05-07 17:13 | 33.35884 | -7.56695 | 665 ft | 2 kts | 6° |
| 2026-05-07 17:13 | 33.35896 | -7.56699 | 665 ft | 0 kts | 330° |
| 2026-05-07 17:13 | 33.35900 | -7.56703 | 665 ft | 1 kts | 319° |
| 2026-05-07 17:13 | 33.35904 | -7.56714 | 665 ft | 1 kts | 286° |
| 2026-05-07 17:14 | 33.35901 | -7.56738 | 665 ft | 5 kts | 251° |
| 2026-05-07 17:14 | 33.35882 | -7.56808 | 665 ft | 11 kts | 253° |
| 2026-05-07 17:14 | 33.35865 | -7.56877 | 665 ft | 13 kts | 253° |
| 2026-05-07 17:14 | 33.35841 | -7.56978 | 665 ft | 11 kts | 254° |
| 2026-05-07 17:15 | 33.35820 | -7.57067 | 665 ft | 11 kts | 253° |
| 2026-05-07 17:15 | 33.35797 | -7.57159 | 665 ft | 12 kts | 254° |
| 2026-05-07 17:15 | 33.35771 | -7.57264 | 665 ft | 14 kts | 253° |
| 2026-05-07 17:15 | 33.35729 | -7.57438 | 665 ft | 18 kts | 254° |
| 2026-05-07 17:16 | 33.35704 | -7.57542 | 665 ft | 20 kts | 254° |
| 2026-05-07 17:16 | 33.35664 | -7.57714 | 665 ft | 22 kts | 254° |
| 2026-05-07 17:16 | 33.35621 | -7.57893 | 665 ft | 17 kts | 253° |
| 2026-05-07 17:16 | 33.35611 | -7.57933 | 665 ft | 0 kts | 253° |
| 2026-05-07 17:17 | 33.35607 | -7.57950 | 665 ft | 3 kts | 253° |
| 2026-05-07 17:17 | 33.35602 | -7.57972 | 665 ft | 4 kts | 254° |
| 2026-05-07 17:17 | 33.35582 | -7.58015 | 665 ft | 3 kts | 205° |
| 2026-05-07 17:17 | 33.35554 | -7.58015 | 665 ft | 4 kts | 167° |
| 2026-05-07 17:18 | 33.35532 | -7.58007 | 665 ft | 0 kts | 163° |
| 2026-05-07 17:19 | 33.35530 | -7.58007 | 665 ft | 1 kts | 163° |
| 2026-05-07 17:19 | 33.35509 | -7.57999 | 665 ft | 4 kts | 163° |
| 2026-05-07 17:20 | 33.35491 | -7.57993 | 665 ft | 0 kts | 163° |
| 2026-05-07 17:22 | 33.35480 | -7.57989 | 665 ft | 2 kts | 163° |
| 2026-05-07 17:22 | 33.35459 | -7.57982 | 665 ft | 3 kts | 163° |
| 2026-05-07 17:22 | 33.35434 | -7.57973 | 665 ft | 4 kts | 163° |
| 2026-05-07 17:23 | 33.35418 | -7.57968 | 665 ft | 0 kts | 163° |
| 2026-05-07 17:23 | 33.35417 | -7.57968 | 665 ft | 0 kts | 163° |
| 2026-05-07 17:24 | 33.35408 | -7.57965 | 665 ft | 0 kts | 163° |
| 2026-05-07 17:24 | 33.35408 | -7.57964 | 665 ft | 0 kts | 163° |
| 2026-05-07 17:24 | 33.35392 | -7.57959 | 665 ft | 2 kts | 163° |
| 2026-05-07 17:24 | 33.35371 | -7.57952 | 665 ft | 3 kts | 164° |
| 2026-05-07 17:25 | 33.35364 | -7.57949 | 665 ft | 0 kts | 164° |
| 2026-05-07 17:26 | 33.35363 | -7.57949 | 665 ft | 0 kts | 164° |
| 2026-05-07 17:26 | 33.35347 | -7.57944 | 665 ft | 2 kts | 164° |
| 2026-05-07 17:26 | 33.35326 | -7.57938 | 665 ft | 3 kts | 171° |
| 2026-05-07 17:27 | 33.35303 | -7.57939 | 665 ft | 3 kts | 187° |
| 2026-05-07 17:27 | 33.35289 | -7.57943 | 665 ft | 2 kts | 200° |
| 2026-05-07 17:27 | 33.35286 | -7.57945 | 665 ft | 0 kts | 205° |
| 2026-05-07 17:32 | 33.35283 | -7.57947 | 665 ft | 1 kts | 207° |
| 2026-05-07 17:33 | 33.35271 | -7.57956 | 665 ft | 1 kts | 215° |
| 2026-05-07 17:33 | 33.35266 | -7.57962 | 665 ft | 0 kts | 226° |
| 2026-05-07 17:33 | 33.35261 | -7.57972 | 665 ft | 1 kts | 240° |
| 2026-05-07 17:33 | 33.35255 | -7.57991 | 665 ft | 3 kts | 253° |
| 2026-05-07 17:34 | 33.35251 | -7.58007 | 665 ft | 0 kts | 253° |
| 2026-05-07 17:36 | 33.35249 | -7.58016 | 665 ft | 1 kts | 254° |
| 2026-05-07 17:37 | 33.35245 | -7.58029 | 665 ft | 2 kts | 254° |
| 2026-05-07 17:37 | 33.35239 | -7.58055 | 665 ft | 2 kts | 254° |
| 2026-05-07 17:37 | 33.35239 | -7.58058 | 665 ft | 0 kts | 254° |
| 2026-05-07 17:39 | 33.35235 | -7.58073 | 665 ft | 2 kts | 254° |
| 2026-05-07 17:39 | 33.35230 | -7.58096 | 665 ft | 3 kts | 254° |
| 2026-05-07 17:40 | 33.35226 | -7.58114 | 665 ft | 3 kts | 255° |
| 2026-05-07 17:40 | 33.35219 | -7.58145 | 665 ft | 3 kts | 255° |
| 2026-05-07 17:40 | 33.35211 | -7.58176 | 665 ft | 4 kts | 254° |
| 2026-05-07 17:40 | 33.35203 | -7.58213 | 665 ft | 5 kts | 255° |
| 2026-05-07 17:41 | 33.35211 | -7.58253 | 665 ft | 4 kts | 316° |
| 2026-05-07 17:41 | 33.35228 | -7.58261 | 665 ft | 0 kts | 343° |
| 2026-05-07 17:42 | 33.35241 | -7.58266 | 665 ft | 6 kts | 343° |
| 2026-05-07 17:43 | 33.35559 | -7.58373 | 665 ft | 70 kts | 343° |
| 2026-05-07 17:43 | 33.36196 | -7.58590 | 665 ft | 118 kts | 343° |
| 2026-05-07 17:43 | 33.36789 | -7.58797 | 665 ft | 147 kts | 342° |
| 2026-05-07 17:43 | 33.38244 | -7.59323 | 1024 ft | 170 kts | 342° |
| 2026-05-07 17:44 | 33.38987 | -7.59585 | 1450 ft | 169 kts | 347° |
| 2026-05-07 17:44 | 33.40132 | -7.59971 | 1973 ft | 173 kts | 348° |
| 2026-05-07 17:44 | 33.41733 | -7.59727 | 2485 ft | 187 kts | 20° |
| 2026-05-07 17:44 | 33.42981 | -7.59115 | 2864 ft | 200 kts | 23° |
| 2026-05-07 17:45 | 33.43855 | -7.58652 | 3112 ft | 211 kts | 19° |
| 2026-05-07 17:45 | 33.45287 | -7.57988 | 3445 ft | 233 kts | 20° |
| 2026-05-07 17:45 | 33.46860 | -7.57238 | 3916 ft | 250 kts | 20° |
| 2026-05-07 17:45 | 33.49099 | -7.56161 | 4663 ft | 268 kts | 21° |
| 2026-05-07 17:46 | 33.50230 | -7.55614 | 5186 ft | 271 kts | 21° |
| 2026-05-07 17:46 | 33.51999 | -7.54757 | 5807 ft | 281 kts | 22° |
| 2026-05-07 17:46 | 33.53807 | -7.53879 | 6572 ft | 286 kts | 22° |
| 2026-05-07 17:46 | 33.55651 | -7.52981 | 7251 ft | 293 kts | 22° |
| 2026-05-07 17:47 | 33.57544 | -7.52060 | 8011 ft | 297 kts | 22° |
| 2026-05-07 17:47 | 33.59454 | -7.51130 | 8685 ft | 304 kts | 21° |
| 2026-05-07 17:47 | 33.61423 | -7.50170 | 9445 ft | 307 kts | 21° |
| 2026-05-07 17:47 | 33.63371 | -7.49222 | 10050 ft | 314 kts | 21° |
| 2026-05-07 17:48 | 33.65428 | -7.48219 | 10601 ft | 326 kts | 21° |
| 2026-05-07 17:48 | 33.68328 | -7.46806 | 11069 ft | 350 kts | 21° |
| 2026-05-07 17:48 | 33.69845 | -7.46065 | 11322 ft | 362 kts | 21° |
| 2026-05-07 17:48 | 33.72223 | -7.44905 | 11708 ft | 380 kts | 21° |
| 2026-05-07 17:49 | 33.75538 | -7.43286 | 12160 ft | 405 kts | 21° |
| 2026-05-07 17:49 | 33.78216 | -7.41976 | 12735 ft | 417 kts | 21° |
| 2026-05-07 17:49 | 33.80891 | -7.40666 | 13514 ft | 422 kts | 21° |
| 2026-05-07 17:49 | 33.83614 | -7.39332 | 14291 ft | 427 kts | 20° |
| 2026-05-07 17:50 | 33.85447 | -7.38433 | 14787 ft | 431 kts | 20° |
| 2026-05-07 17:50 | 33.89155 | -7.36615 | 15755 ft | 437 kts | 20° |
| 2026-05-07 17:50 | 33.91978 | -7.35230 | 16434 ft | 442 kts | 20° |
| 2026-05-07 17:50 | 33.94149 | -7.34164 | 16911 ft | 447 kts | 20° |
| 2026-05-07 17:51 | 33.97076 | -7.32726 | 17658 ft | 451 kts | 20° |
| 2026-05-07 17:51 | 33.99549 | -7.31510 | 18149 ft | 457 kts | 20° |
| 2026-05-07 17:51 | 34.02489 | -7.30063 | 18865 ft | 460 kts | 19° |
| 2026-05-07 17:51 | 34.05504 | -7.28579 | 19425 ft | 467 kts | 19° |
| 2026-05-07 17:52 | 34.08490 | -7.27107 | 20141 ft | 469 kts | 19° |
| 2026-05-07 17:52 | 34.11023 | -7.25859 | 20592 ft | 474 kts | 19° |
| 2026-05-07 17:52 | 34.14467 | -7.24160 | 21229 ft | 480 kts | 19° |
| 2026-05-07 17:52 | 34.17583 | -7.22620 | 21859 ft | 483 kts | 19° |
| 2026-05-07 17:53 | 34.20683 | -7.21087 | 22432 ft | 487 kts | 19° |
| 2026-05-07 17:53 | 34.23830 | -7.19531 | 23007 ft | 491 kts | 19° |
| 2026-05-07 17:53 | 34.27004 | -7.17959 | 23564 ft | 495 kts | 19° |
| 2026-05-07 17:53 | 34.30196 | -7.16378 | 24160 ft | 498 kts | 19° |
| 2026-05-07 17:54 | 34.33406 | -7.14785 | 24687 ft | 502 kts | 19° |
| 2026-05-07 17:54 | 34.36650 | -7.13175 | 25217 ft | 507 kts | 18° |
| 2026-05-07 17:54 | 34.39926 | -7.11547 | 25947 ft | 506 kts | 18° |
| 2026-05-07 17:54 | 34.43184 | -7.09929 | 26339 ft | 513 kts | 18° |
| 2026-05-07 17:55 | 34.46504 | -7.08277 | 26855 ft | 516 kts | 18° |
| 2026-05-07 17:55 | 34.49797 | -7.06636 | 27467 ft | 517 kts | 18° |
| 2026-05-07 17:55 | 34.53165 | -7.04957 | 27841 ft | 522 kts | 18° |
| 2026-05-07 17:55 | 34.56521 | -7.03282 | 28384 ft | 523 kts | 18° |
| 2026-05-07 17:56 | 34.59891 | -7.01595 | 28948 ft | 523 kts | 19° |
| 2026-05-07 17:56 | 34.63160 | -6.99677 | 29566 ft | 524 kts | 23° |
| 2026-05-07 17:56 | 34.66380 | -6.97678 | 30109 ft | 523 kts | 22° |
| 2026-05-07 17:56 | 34.69622 | -6.95677 | 30887 ft | 518 kts | 22° |
| 2026-05-07 17:57 | 34.72810 | -6.93715 | 31496 ft | 516 kts | 22° |
| 2026-05-07 17:57 | 34.76000 | -6.91753 | 32000 ft | 516 kts | 22° |
| 2026-05-07 17:57 | 34.79205 | -6.89782 | 32627 ft | 513 kts | 22° |
| 2026-05-07 17:57 | 34.82413 | -6.87809 | 33105 ft | 512 kts | 22° |
| 2026-05-07 17:58 | 34.85574 | -6.85860 | 33733 ft | 508 kts | 22° |
| 2026-05-07 17:58 | 34.88695 | -6.83936 | 33908 ft | 504 kts | 21° |
| 2026-05-07 17:58 | 34.94961 | -6.80074 | 33907 ft | 508 kts | 21° |
| 2026-05-07 17:59 | 35.01240 | -6.76196 | 33919 ft | 508 kts | 21° |
| 2026-05-07 17:59 | 35.07569 | -6.72278 | 33925 ft | 509 kts | 21° |
| 2026-05-07 18:00 | 35.13788 | -6.68424 | 33923 ft | 508 kts | 21° |
| 2026-05-07 18:00 | 35.20069 | -6.64523 | 33927 ft | 508 kts | 21° |
| 2026-05-07 18:01 | 35.26388 | -6.60591 | 33927 ft | 507 kts | 21° |
| 2026-05-07 18:01 | 35.32644 | -6.56691 | 33927 ft | 507 kts | 21° |
| 2026-05-07 18:02 | 35.42063 | -6.50811 | 33935 ft | 507 kts | 21° |
| 2026-05-07 18:03 | 35.48331 | -6.46797 | 33936 ft | 510 kts | 22° |
| 2026-05-07 18:03 | 35.54588 | -6.42717 | 33930 ft | 510 kts | 22° |
| 2026-05-07 18:04 | 35.60852 | -6.38626 | 33937 ft | 510 kts | 22° |
| 2026-05-07 18:04 | 35.67059 | -6.34567 | 33939 ft | 509 kts | 22° |
| 2026-05-07 18:05 | 35.73288 | -6.30486 | 33925 ft | 508 kts | 22° |
| 2026-05-07 18:05 | 35.79580 | -6.26384 | 33919 ft | 510 kts | 22° |
| 2026-05-07 18:06 | 35.86055 | -6.23252 | 33942 ft | 494 kts | 7° |
| 2026-05-07 18:06 | 35.92684 | -6.21235 | 33927 ft | 494 kts | 7° |
| 2026-05-07 18:07 | 35.99406 | -6.19228 | 33922 ft | 496 kts | 7° |
| 2026-05-07 18:07 | 36.06078 | -6.17251 | 33919 ft | 495 kts | 7° |
| 2026-05-07 18:08 | 36.12777 | -6.15272 | 33903 ft | 495 kts | 7° |
| 2026-05-07 18:08 | 36.19467 | -6.13294 | 33904 ft | 496 kts | 7° |
| 2026-05-07 18:09 | 36.26153 | -6.11314 | 33903 ft | 494 kts | 7° |
| 2026-05-07 18:09 | 36.32858 | -6.09326 | 33904 ft | 496 kts | 7° |
| 2026-05-07 18:10 | 36.39554 | -6.07336 | 33908 ft | 494 kts | 7° |
| 2026-05-07 18:10 | 36.46261 | -6.05342 | 33907 ft | 495 kts | 7° |
| 2026-05-07 18:11 | 36.52942 | -6.03350 | 33912 ft | 496 kts | 6° |
| 2026-05-07 18:11 | 36.59627 | -6.01354 | 33909 ft | 495 kts | 7° |
| 2026-05-07 18:12 | 36.66302 | -5.99358 | 33907 ft | 493 kts | 7° |
| 2026-05-07 18:12 | 36.72974 | -5.97358 | 33911 ft | 493 kts | 6° |
| 2026-05-07 18:13 | 36.79643 | -5.95357 | 33913 ft | 493 kts | 7° |
| 2026-05-07 18:13 | 36.86293 | -5.93358 | 33908 ft | 493 kts | 7° |
| 2026-05-07 18:14 | 36.92987 | -5.91341 | 33912 ft | 494 kts | 6° |
| 2026-05-07 18:14 | 36.99626 | -5.89338 | 33905 ft | 494 kts | 6° |
| 2026-05-07 18:15 | 37.06323 | -5.87313 | 33908 ft | 494 kts | 7° |
| 2026-05-07 18:15 | 37.13006 | -5.85288 | 33899 ft | 493 kts | 6° |
| 2026-05-07 18:16 | 37.19649 | -5.83272 | 33896 ft | 493 kts | 6° |
| 2026-05-07 18:16 | 37.26313 | -5.81248 | 33899 ft | 493 kts | 7° |
| 2026-05-07 18:17 | 37.32952 | -5.79224 | 33896 ft | 492 kts | 6° |
| 2026-05-07 18:17 | 37.39645 | -5.77184 | 33895 ft | 494 kts | 7° |
| 2026-05-07 18:18 | 37.46087 | -5.74150 | 33903 ft | 506 kts | 19° |